Station: EBLG - 02/03/2024 16:20Z (il y a 18 minutes)
EBLG 021620Z 14011KT 9999 FEW042 11/03 Q0998 NOSIG
Vent du 140º - 11 kt
Visibilité > 10 km
Nuages épars à 4200 pieds
Température: +11ºC - Point de rosée: +03ºC - QNH: 998 hPa
Pas de changement significatif prévu dans les 2 heures qui suivent l'observation